sensor_id;sensor_type;location;lat;lon;timestamp;pressure;altitude;pressure_sealevel;temperature;humidity
6387;BME280;3226;42.162;24.756;2022-09-09T00:01:23;99846.19;;;17.74;68.09
6387;BME280;3226;42.162;24.756;2022-09-09T00:04:00;99871.72;;;17.42;69.51
6387;BME280;3226;42.162;24.756;2022-09-09T00:06:32;99869.56;;;17.20;70.90
6387;BME280;3226;42.162;24.756;2022-09-09T00:09:07;99865.44;;;17.34;70.36
6387;BME280;3226;42.162;24.756;2022-09-09T00:11:43;99861.78;;;17.36;70.22
6387;BME280;3226;42.162;24.756;2022-09-09T00:14:20;99878.34;;;17.29;70.58
6387;BME280;3226;42.162;24.756;2022-09-09T00:16:54;99864.53;;;16.92;72.14
6387;BME280;3226;42.162;24.756;2022-09-09T00:19:28;99871.28;;;16.70;73.00
6387;BME280;3226;42.162;24.756;2022-09-09T00:22:07;99868.38;;;16.39;74.50
6387;BME280;3226;42.162;24.756;2022-09-09T00:24:44;99850.22;;;16.44;74.07
6387;BME280;3226;42.162;24.756;2022-09-09T00:27:21;99872.94;;;16.71;73.24
6387;BME280;3226;42.162;24.756;2022-09-09T00:29:56;99871.13;;;16.72;73.21
6387;BME280;3226;42.162;24.756;2022-09-09T00:32:29;99878.75;;;16.83;73.04
6387;BME280;3226;42.162;24.756;2022-09-09T00:35:02;99887.00;;;16.80;73.07
6387;BME280;3226;42.162;24.756;2022-09-09T00:37:31;99892.44;;;16.70;73.60
6387;BME280;3226;42.162;24.756;2022-09-09T00:40:06;99891.16;;;16.91;72.57
6387;BME280;3226;42.162;24.756;2022-09-09T00:42:41;99883.50;;;16.71;73.63
6387;BME280;3226;42.162;24.756;2022-09-09T00:48:08;99881.84;;;16.62;73.98
6387;BME280;3226;42.162;24.756;2022-09-09T00:50:44;99857.63;;;16.40;74.75
6387;BME280;3226;42.162;24.756;2022-09-09T00:53:26;99888.31;;;16.76;73.56
6387;BME280;3226;42.162;24.756;2022-09-09T00:56:06;99885.66;;;16.68;73.91
6387;BME280;3226;42.162;24.756;2022-09-09T00:58:38;99889.47;;;16.73;73.47
6387;BME280;3226;42.162;24.756;2022-09-09T01:01:09;99867.28;;;16.58;73.80
6387;BME280;3226;42.162;24.756;2022-09-09T01:03:43;99886.81;;;16.65;74.33
6387;BME280;3226;42.162;24.756;2022-09-09T01:06:19;99888.84;;;16.80;73.71
6387;BME280;3226;42.162;24.756;2022-09-09T01:09:03;99892.16;;;16.90;73.35
6387;BME280;3226;42.162;24.756;2022-09-09T01:11:42;99892.16;;;16.82;73.52
6387;BME280;3226;42.162;24.756;2022-09-09T01:14:22;99891.13;;;16.74;73.79
6387;BME280;3226;42.162;24.756;2022-09-09T01:16:54;99849.25;;;16.53;73.94
6387;BME280;3226;42.162;24.756;2022-09-09T01:19:31;99885.22;;;16.81;73.64
6387;BME280;3226;42.162;24.756;2022-09-09T01:22:11;99887.81;;;16.72;74.16
6387;BME280;3226;42.162;24.756;2022-09-09T01:25:01;99885.03;;;16.82;73.65
6387;BME280;3226;42.162;24.756;2022-09-09T01:27:36;99885.13;;;16.56;74.29
6387;BME280;3226;42.162;24.756;2022-09-09T01:30:09;99888.00;;;16.71;73.72
6387;BME280;3226;42.162;24.756;2022-09-09T01:32:41;99865.00;;;16.71;73.72
6387;BME280;3226;42.162;24.756;2022-09-09T01:35:19;99881.88;;;16.79;73.85
6387;BME280;3226;42.162;24.756;2022-09-09T01:37:52;99883.25;;;16.91;73.25
6387;BME280;3226;42.162;24.756;2022-09-09T01:40:20;99879.59;;;16.92;73.15
6387;BME280;3226;42.162;24.756;2022-09-09T01:42:50;99876.78;;;16.94;72.90
6387;BME280;3226;42.162;24.756;2022-09-09T01:45:19;99870.81;;;16.83;73.51
6387;BME280;3226;42.162;24.756;2022-09-09T01:47:47;99869.91;;;17.01;73.01
6387;BME280;3226;42.162;24.756;2022-09-09T01:50:16;99869.22;;;16.99;73.70
6387;BME280;3226;42.162;24.756;2022-09-09T01:52:48;99867.59;;;17.06;73.09
6387;BME280;3226;42.162;24.756;2022-09-09T01:55:19;99866.91;;;17.20;72.45
6387;BME280;3226;42.162;24.756;2022-09-09T01:57:58;99868.06;;;17.10;72.83
6387;BME280;3226;42.162;24.756;2022-09-09T02:00:30;99871.69;;;17.09;73.25
6387;BME280;3226;42.162;24.756;2022-09-09T02:03:06;99875.00;;;17.11;73.19
6387;BME280;3226;42.162;24.756;2022-09-09T02:05:38;99875.53;;;17.23;72.65
6387;BME280;3226;42.162;24.756;2022-09-09T02:08:08;99876.66;;;17.12;72.46
6387;BME280;3226;42.162;24.756;2022-09-09T02:10:44;99864.75;;;17.08;71.75
6387;BME280;3226;42.162;24.756;2022-09-09T02:13:18;99871.69;;;17.00;71.28
6387;BME280;3226;42.162;24.756;2022-09-09T02:15:53;99872.53;;;17.01;72.62
6387;BME280;3226;42.162;24.756;2022-09-09T02:18:27;99870.75;;;17.18;71.32
6387;BME280;3226;42.162;24.756;2022-09-09T02:20:59;99857.34;;;17.19;71.79
6387;BME280;3226;42.162;24.756;2022-09-09T02:23:27;99853.84;;;17.02;71.69
6387;BME280;3226;42.162;24.756;2022-09-09T02:25:57;99844.56;;;16.90;71.61
6387;BME280;3226;42.162;24.756;2022-09-09T02:28:29;99872.47;;;16.92;72.21
6387;BME280;3226;42.162;24.756;2022-09-09T02:31:00;99865.94;;;17.05;72.13
6387;BME280;3226;42.162;24.756;2022-09-09T02:33:34;99844.59;;;16.98;71.84
6387;BME280;3226;42.162;24.756;2022-09-09T02:36:03;99864.47;;;17.19;71.47
6387;BME280;3226;42.162;24.756;2022-09-09T02:38:36;99867.25;;;17.17;72.01
6387;BME280;3226;42.162;24.756;2022-09-09T02:41:06;99847.81;;;16.75;73.03
6387;BME280;3226;42.162;24.756;2022-09-09T02:43:36;99801.53;;;16.63;72.87
6387;BME280;3226;42.162;24.756;2022-09-09T02:46:13;99849.47;;;16.76;73.80
6387;BME280;3226;42.162;24.756;2022-09-09T02:48:51;99881.56;;;16.82;74.67
6387;BME280;3226;42.162;24.756;2022-09-09T02:51:27;99879.56;;;16.75;74.53
6387;BME280;3226;42.162;24.756;2022-09-09T02:54:07;99870.13;;;16.65;74.88
6387;BME280;3226;42.162;24.756;2022-09-09T02:56:41;99879.91;;;16.81;74.81
6387;BME280;3226;42.162;24.756;2022-09-09T02:59:12;99890.41;;;16.99;73.97
6387;BME280;3226;42.162;24.756;2022-09-09T03:01:40;99884.84;;;16.75;74.54
6387;BME280;3226;42.162;24.756;2022-09-09T03:04:09;99885.44;;;16.44;75.68
6387;BME280;3226;42.162;24.756;2022-09-09T03:06:37;99888.69;;;16.38;75.82
6387;BME280;3226;42.162;24.756;2022-09-09T03:09:05;99866.22;;;16.42;74.62
6387;BME280;3226;42.162;24.756;2022-09-09T03:11:34;99885.00;;;16.66;73.49
6387;BME280;3226;42.162;24.756;2022-09-09T03:14:02;99868.81;;;16.69;72.71
6387;BME280;3226;42.162;24.756;2022-09-09T03:16:32;99882.69;;;16.71;72.32
6387;BME280;3226;42.162;24.756;2022-09-09T03:19:01;99883.56;;;16.88;71.86
6387;BME280;3226;42.162;24.756;2022-09-09T03:21:29;99885.81;;;16.66;72.61
6387;BME280;3226;42.162;24.756;2022-09-09T03:23:57;99892.50;;;16.36;73.94
6387;BME280;3226;42.162;24.756;2022-09-09T03:26:25;99884.22;;;16.30;73.79
6387;BME280;3226;42.162;24.756;2022-09-09T03:28:53;99902.50;;;16.24;74.76
6387;BME280;3226;42.162;24.756;2022-09-09T03:31:21;99901.22;;;16.36;73.76
6387;BME280;3226;42.162;24.756;2022-09-09T03:33:51;99898.16;;;16.49;72.50
6387;BME280;3226;42.162;24.756;2022-09-09T03:36:19;99906.13;;;16.23;74.37
6387;BME280;3226;42.162;24.756;2022-09-09T03:38:47;99909.34;;;16.35;73.02
6387;BME280;3226;42.162;24.756;2022-09-09T03:41:15;99915.72;;;16.24;73.63
6387;BME280;3226;42.162;24.756;2022-09-09T03:43:44;99911.97;;;15.82;75.03
6387;BME280;3226;42.162;24.756;2022-09-09T03:46:13;99897.75;;;15.56;76.20
6387;BME280;3226;42.162;24.756;2022-09-09T03:48:41;99908.94;;;15.50;77.50
6387;BME280;3226;42.162;24.756;2022-09-09T03:51:12;99912.09;;;15.36;78.36
6387;BME280;3226;42.162;24.756;2022-09-09T03:53:41;99905.41;;;15.23;79.39
6387;BME280;3226;42.162;24.756;2022-09-09T03:56:10;99908.78;;;15.33;79.24
6387;BME280;3226;42.162;24.756;2022-09-09T03:58:38;99904.03;;;15.37;79.13
6387;BME280;3226;42.162;24.756;2022-09-09T04:01:11;99909.63;;;15.52;78.65
6387;BME280;3226;42.162;24.756;2022-09-09T04:03:41;99885.78;;;15.62;77.48
6387;BME280;3226;42.162;24.756;2022-09-09T04:06:12;99903.22;;;15.81;77.15
6387;BME280;3226;42.162;24.756;2022-09-09T04:08:41;99892.34;;;15.84;77.08
6387;BME280;3226;42.162;24.756;2022-09-09T04:11:10;99906.19;;;16.04;76.12
6387;BME280;3226;42.162;24.756;2022-09-09T04:13:38;99911.09;;;15.91;76.72
6387;BME280;3226;42.162;24.756;2022-09-09T04:16:07;99902.00;;;15.94;76.55
6387;BME280;3226;42.162;24.756;2022-09-09T04:18:37;99906.19;;;16.04;76.13
6387;BME280;3226;42.162;24.756;2022-09-09T04:21:05;99905.13;;;16.15;75.87
6387;BME280;3226;42.162;24.756;2022-09-09T04:23:36;99901.19;;;16.28;75.44
6387;BME280;3226;42.162;24.756;2022-09-09T04:26:05;99892.81;;;16.06;76.23
6387;BME280;3226;42.162;24.756;2022-09-09T04:28:35;99891.59;;;16.18;75.78
6387;BME280;3226;42.162;24.756;2022-09-09T04:31:05;99885.66;;;16.25;76.27
6387;BME280;3226;42.162;24.756;2022-09-09T04:33:34;99897.75;;;16.27;76.62
6387;BME280;3226;42.162;24.756;2022-09-09T04:36:06;99902.16;;;16.18;77.07
6387;BME280;3226;42.162;24.756;2022-09-09T04:38:36;99911.34;;;16.41;76.07
6387;BME280;3226;42.162;24.756;2022-09-09T04:41:05;99906.28;;;16.56;75.78
6387;BME280;3226;42.162;24.756;2022-09-09T04:43:34;99905.09;;;16.50;75.67
6387;BME280;3226;42.162;24.756;2022-09-09T04:46:02;99910.38;;;16.50;75.40
6387;BME280;3226;42.162;24.756;2022-09-09T04:48:31;99922.84;;;16.74;74.83
6387;BME280;3226;42.162;24.756;2022-09-09T04:51:00;99925.03;;;16.79;73.17
6387;BME280;3226;42.162;24.756;2022-09-09T04:53:29;99921.91;;;16.84;73.31
6387;BME280;3226;42.162;24.756;2022-09-09T04:56:06;99933.16;;;16.86;73.78
6387;BME280;3226;42.162;24.756;2022-09-09T04:58:35;99928.19;;;16.91;74.11
6387;BME280;3226;42.162;24.756;2022-09-09T05:01:05;99938.03;;;17.07;73.71
6387;BME280;3226;42.162;24.756;2022-09-09T05:03:34;99934.31;;;16.91;74.95
6387;BME280;3226;42.162;24.756;2022-09-09T05:06:07;99934.06;;;17.03;74.85
6387;BME280;3226;42.162;24.756;2022-09-09T05:08:36;99932.22;;;17.03;74.92
6387;BME280;3226;42.162;24.756;2022-09-09T05:11:14;99931.28;;;17.21;74.11
6387;BME280;3226;42.162;24.756;2022-09-09T05:13:44;99937.22;;;17.31;73.68
6387;BME280;3226;42.162;24.756;2022-09-09T05:16:13;99929.78;;;17.18;73.79
6387;BME280;3226;42.162;24.756;2022-09-09T05:18:42;99858.72;;;16.64;74.00
6387;BME280;3226;42.162;24.756;2022-09-09T05:21:11;99924.81;;;17.07;74.63
6387;BME280;3226;42.162;24.756;2022-09-09T05:23:40;99919.50;;;17.32;73.47
6387;BME280;3226;42.162;24.756;2022-09-09T05:26:12;99913.22;;;17.08;73.01
6387;BME280;3226;42.162;24.756;2022-09-09T05:28:45;99897.94;;;16.94;73.48
6387;BME280;3226;42.162;24.756;2022-09-09T05:31:15;99927.31;;;17.17;72.60
6387;BME280;3226;42.162;24.756;2022-09-09T05:33:45;99913.25;;;17.33;72.51
6387;BME280;3226;42.162;24.756;2022-09-09T05:36:16;99921.53;;;17.46;72.20
6387;BME280;3226;42.162;24.756;2022-09-09T05:38:44;99909.09;;;17.39;71.32
6387;BME280;3226;42.162;24.756;2022-09-09T05:41:14;99893.41;;;17.45;71.45
6387;BME280;3226;42.162;24.756;2022-09-09T05:43:46;99923.66;;;17.76;70.74
6387;BME280;3226;42.162;24.756;2022-09-09T05:46:16;99927.63;;;17.97;69.93
6387;BME280;3226;42.162;24.756;2022-09-09T05:48:46;99901.63;;;17.92;69.39
6387;BME280;3226;42.162;24.756;2022-09-09T05:51:19;99919.16;;;17.93;70.30
6387;BME280;3226;42.162;24.756;2022-09-09T05:53:48;99925.31;;;17.94;70.14
6387;BME280;3226;42.162;24.756;2022-09-09T05:56:18;99924.13;;;17.96;69.33
6387;BME280;3226;42.162;24.756;2022-09-09T05:58:51;99899.50;;;17.46;70.27
6387;BME280;3226;42.162;24.756;2022-09-09T06:01:22;99926.50;;;17.74;70.26
6387;BME280;3226;42.162;24.756;2022-09-09T06:03:51;99923.31;;;17.79;70.72
6387;BME280;3226;42.162;24.756;2022-09-09T06:06:21;99900.16;;;17.89;69.85
6387;BME280;3226;42.162;24.756;2022-09-09T06:08:51;99907.34;;;18.20;68.92
6387;BME280;3226;42.162;24.756;2022-09-09T06:11:22;99903.41;;;18.16;69.05
6387;BME280;3226;42.162;24.756;2022-09-09T06:13:52;99902.06;;;18.20;68.18
6387;BME280;3226;42.162;24.756;2022-09-09T06:16:23;99885.53;;;18.10;67.44
6387;BME280;3226;42.162;24.756;2022-09-09T06:18:52;99911.84;;;18.20;67.74
6387;BME280;3226;42.162;24.756;2022-09-09T06:21:22;99903.34;;;18.33;67.89
6387;BME280;3226;42.162;24.756;2022-09-09T06:23:51;99914.34;;;18.22;67.94
6387;BME280;3226;42.162;24.756;2022-09-09T06:26:27;99895.47;;;18.08;68.33
6387;BME280;3226;42.162;24.756;2022-09-09T06:28:57;99896.09;;;18.27;67.79
6387;BME280;3226;42.162;24.756;2022-09-09T06:31:27;99898.44;;;18.22;67.66
6387;BME280;3226;42.162;24.756;2022-09-09T06:33:58;99899.41;;;18.20;68.02
6387;BME280;3226;42.162;24.756;2022-09-09T06:36:28;99848.47;;;17.85;67.92
6387;BME280;3226;42.162;24.756;2022-09-09T06:38:58;99921.25;;;18.31;67.69
6387;BME280;3226;42.162;24.756;2022-09-09T06:41:28;99909.34;;;18.27;67.72
6387;BME280;3226;42.162;24.756;2022-09-09T06:43:58;99913.88;;;18.49;66.88
6387;BME280;3226;42.162;24.756;2022-09-09T06:46:30;99921.44;;;18.69;66.17
6387;BME280;3226;42.162;24.756;2022-09-09T06:49:00;99910.19;;;18.67;66.36
6387;BME280;3226;42.162;24.756;2022-09-09T06:51:30;99928.75;;;18.67;66.31
6387;BME280;3226;42.162;24.756;2022-09-09T06:53:59;99900.69;;;18.73;66.03
6387;BME280;3226;42.162;24.756;2022-09-09T06:56:30;99923.28;;;19.00;65.84
6387;BME280;3226;42.162;24.756;2022-09-09T06:59:02;99897.47;;;18.86;66.15
6387;BME280;3226;42.162;24.756;2022-09-09T07:01:33;99917.16;;;19.00;66.44
6387;BME280;3226;42.162;24.756;2022-09-09T07:04:03;99923.22;;;19.09;65.73
6387;BME280;3226;42.162;24.756;2022-09-09T07:06:38;99925.44;;;19.28;65.38
6387;BME280;3226;42.162;24.756;2022-09-09T07:09:09;99919.84;;;19.38;64.74
6387;BME280;3226;42.162;24.756;2022-09-09T07:11:39;99919.25;;;19.51;64.47
6387;BME280;3226;42.162;24.756;2022-09-09T07:14:11;99915.63;;;19.67;63.45
6387;BME280;3226;42.162;24.756;2022-09-09T07:16:41;99913.66;;;19.84;62.72
6387;BME280;3226;42.162;24.756;2022-09-09T07:19:10;99915.75;;;19.74;63.44
6387;BME280;3226;42.162;24.756;2022-09-09T07:21:39;99912.53;;;19.78;63.72
6387;BME280;3226;42.162;24.756;2022-09-09T07:24:08;99919.41;;;19.73;63.70
6387;BME280;3226;42.162;24.756;2022-09-09T07:26:39;99912.63;;;19.70;63.59
6387;BME280;3226;42.162;24.756;2022-09-09T07:29:09;99914.81;;;19.67;63.31
6387;BME280;3226;42.162;24.756;2022-09-09T07:31:46;99882.63;;;19.61;62.97
6387;BME280;3226;42.162;24.756;2022-09-09T07:34:15;99903.56;;;19.79;62.41
6387;BME280;3226;42.162;24.756;2022-09-09T07:36:43;99912.53;;;20.02;61.66
6387;BME280;3226;42.162;24.756;2022-09-09T07:39:14;99908.22;;;20.01;62.25
6387;BME280;3226;42.162;24.756;2022-09-09T07:41:45;99823.41;;;19.76;61.56
6387;BME280;3226;42.162;24.756;2022-09-09T07:44:17;99916.13;;;20.61;61.29
6387;BME280;3226;42.162;24.756;2022-09-09T07:46:48;99913.41;;;20.69;60.78
6387;BME280;3226;42.162;24.756;2022-09-09T07:49:18;99909.13;;;20.75;60.49
6387;BME280;3226;42.162;24.756;2022-09-09T07:51:55;99907.53;;;20.44;60.80
6387;BME280;3226;42.162;24.756;2022-09-09T07:54:24;99911.16;;;20.73;60.04
6387;BME280;3226;42.162;24.756;2022-09-09T07:56:53;99907.22;;;20.84;60.09
6387;BME280;3226;42.162;24.756;2022-09-09T07:59:23;99902.53;;;20.71;59.23
6387;BME280;3226;42.162;24.756;2022-09-09T08:01:52;99897.38;;;20.84;59.50
6387;BME280;3226;42.162;24.756;2022-09-09T08:04:23;99902.22;;;21.17;58.51
6387;BME280;3226;42.162;24.756;2022-09-09T08:06:54;99892.41;;;21.40;58.27
6387;BME280;3226;42.162;24.756;2022-09-09T08:09:24;99893.53;;;21.52;57.75
6387;BME280;3226;42.162;24.756;2022-09-09T08:11:56;99852.97;;;21.28;57.46
6387;BME280;3226;42.162;24.756;2022-09-09T08:14:26;99886.50;;;21.73;57.53
6387;BME280;3226;42.162;24.756;2022-09-09T08:16:55;99862.41;;;21.59;56.32
6387;BME280;3226;42.162;24.756;2022-09-09T08:19:24;99886.41;;;21.59;56.78
6387;BME280;3226;42.162;24.756;2022-09-09T08:21:55;99868.78;;;21.58;56.72
6387;BME280;3226;42.162;24.756;2022-09-09T08:24:24;99878.91;;;21.98;56.27
6387;BME280;3226;42.162;24.756;2022-09-09T08:26:53;99874.78;;;21.95;56.09
6387;BME280;3226;42.162;24.756;2022-09-09T08:29:23;99883.28;;;22.13;55.14
6387;BME280;3226;42.162;24.756;2022-09-09T08:31:55;99871.81;;;22.19;54.55
6387;BME280;3226;42.162;24.756;2022-09-09T08:34:25;99872.56;;;22.06;55.25
6387;BME280;3226;42.162;24.756;2022-09-09T08:36:54;99871.47;;;22.29;54.12
6387;BME280;3226;42.162;24.756;2022-09-09T08:39:23;99871.47;;;22.29;54.49
6387;BME280;3226;42.162;24.756;2022-09-09T08:42:22;99868.66;;;22.44;54.03
6387;BME280;3226;42.162;24.756;2022-09-09T08:45:09;99865.41;;;22.48;53.71
6387;BME280;3226;42.162;24.756;2022-09-09T08:47:50;99873.47;;;22.20;54.60
6387;BME280;3226;42.162;24.756;2022-09-09T08:50:22;99872.09;;;21.95;54.12
6387;BME280;3226;42.162;24.756;2022-09-09T08:52:59;99870.41;;;21.81;54.50
6387;BME280;3226;42.162;24.756;2022-09-09T08:55:37;99856.06;;;22.31;53.83
6387;BME280;3226;42.162;24.756;2022-09-09T08:58:13;99862.25;;;22.38;53.72
6387;BME280;3226;42.162;24.756;2022-09-09T09:00:54;99864.22;;;22.71;53.55
6387;BME280;3226;42.162;24.756;2022-09-09T09:03:35;99822.97;;;22.67;51.98
6387;BME280;3226;42.162;24.756;2022-09-09T09:06:17;99853.59;;;22.98;50.87
6387;BME280;3226;42.162;24.756;2022-09-09T09:08:58;99857.56;;;23.56;49.47
6387;BME280;3226;42.162;24.756;2022-09-09T09:11:35;99847.91;;;23.55;50.23
6387;BME280;3226;42.162;24.756;2022-09-09T09:14:08;99851.19;;;23.57;49.76
6387;BME280;3226;42.162;24.756;2022-09-09T09:16:40;99841.91;;;23.60;49.92
6387;BME280;3226;42.162;24.756;2022-09-09T09:19:13;99819.91;;;23.71;49.76
6387;BME280;3226;42.162;24.756;2022-09-09T09:21:44;99839.56;;;23.97;49.48
6387;BME280;3226;42.162;24.756;2022-09-09T09:24:17;99802.19;;;23.77;49.85
6387;BME280;3226;42.162;24.756;2022-09-09T09:26:47;99823.72;;;24.09;48.78
6387;BME280;3226;42.162;24.756;2022-09-09T09:29:18;99824.31;;;24.11;49.25
6387;BME280;3226;42.162;24.756;2022-09-09T09:31:51;99818.00;;;23.85;49.22
6387;BME280;3226;42.162;24.756;2022-09-09T09:34:23;99819.91;;;23.64;49.61
6387;BME280;3226;42.162;24.756;2022-09-09T09:36:53;99819.63;;;23.86;49.61
6387;BME280;3226;42.162;24.756;2022-09-09T09:39:24;99811.19;;;24.03;49.25
6387;BME280;3226;42.162;24.756;2022-09-09T09:42:15;99804.94;;;24.22;48.65
6387;BME280;3226;42.162;24.756;2022-09-09T09:44:49;99809.66;;;24.20;49.17
6387;BME280;3226;42.162;24.756;2022-09-09T09:47:18;99808.25;;;24.11;48.99
6387;BME280;3226;42.162;24.756;2022-09-09T09:49:53;99811.50;;;24.27;49.21
6387;BME280;3226;42.162;24.756;2022-09-09T09:52:24;99797.72;;;24.23;48.49
6387;BME280;3226;42.162;24.756;2022-09-09T09:54:53;99795.13;;;24.09;49.04
6387;BME280;3226;42.162;24.756;2022-09-09T09:57:25;99794.63;;;24.19;48.95
6387;BME280;3226;42.162;24.756;2022-09-09T10:00:02;99795.97;;;24.42;49.34
6387;BME280;3226;42.162;24.756;2022-09-09T10:02:38;99793.72;;;24.39;48.05
6387;BME280;3226;42.162;24.756;2022-09-09T10:05:15;99787.59;;;24.32;49.12
6387;BME280;3226;42.162;24.756;2022-09-09T10:07:43;99788.69;;;24.56;48.81
6387;BME280;3226;42.162;24.756;2022-09-09T10:10:15;99748.34;;;24.58;48.48
6387;BME280;3226;42.162;24.756;2022-09-09T10:12:57;99764.34;;;24.90;48.61
6387;BME280;3226;42.162;24.756;2022-09-09T10:15:37;99769.22;;;25.00;47.44
6387;BME280;3226;42.162;24.756;2022-09-09T10:18:24;99757.16;;;24.90;48.29
6387;BME280;3226;42.162;24.756;2022-09-09T10:21:03;99757.97;;;24.91;48.29
6387;BME280;3226;42.162;24.756;2022-09-09T10:23:49;99753.22;;;25.18;48.25
6387;BME280;3226;42.162;24.756;2022-09-09T10:26:32;99762.88;;;25.38;48.19
6387;BME280;3226;42.162;24.756;2022-09-09T10:29:24;99765.72;;;25.43;46.62
6387;BME280;3226;42.162;24.756;2022-09-09T10:32:06;99765.25;;;25.53;46.46
6387;BME280;3226;42.162;24.756;2022-09-09T10:34:55;99769.44;;;25.42;46.23
6387;BME280;3226;42.162;24.756;2022-09-09T10:37:41;99754.97;;;25.50;47.49
6387;BME280;3226;42.162;24.756;2022-09-09T10:40:22;99761.00;;;25.64;46.78
6387;BME280;3226;42.162;24.756;2022-09-09T10:43:04;99752.38;;;25.62;45.85
6387;BME280;3226;42.162;24.756;2022-09-09T10:45:45;99758.41;;;25.76;46.30
6387;BME280;3226;42.162;24.756;2022-09-09T10:48:29;99761.41;;;25.98;45.62
6387;BME280;3226;42.162;24.756;2022-09-09T10:51:11;99752.25;;;26.06;45.93
6387;BME280;3226;42.162;24.756;2022-09-09T10:53:52;99749.50;;;25.94;46.81
6387;BME280;3226;42.162;24.756;2022-09-09T10:56:23;99742.69;;;26.10;45.64
6387;BME280;3226;42.162;24.756;2022-09-09T10:58:54;99744.69;;;26.15;46.31
6387;BME280;3226;42.162;24.756;2022-09-09T11:01:29;99737.50;;;25.96;46.42
6387;BME280;3226;42.162;24.756;2022-09-09T11:04:03;99748.06;;;26.10;47.09
6387;BME280;3226;42.162;24.756;2022-09-09T11:06:37;99709.44;;;26.11;46.27
6387;BME280;3226;42.162;24.756;2022-09-09T11:09:15;99725.63;;;26.23;46.18
6387;BME280;3226;42.162;24.756;2022-09-09T11:11:49;99730.13;;;26.53;45.54
6387;BME280;3226;42.162;24.756;2022-09-09T11:14:26;99725.19;;;26.50;45.35
6387;BME280;3226;42.162;24.756;2022-09-09T11:17:06;99716.34;;;26.49;44.99
6387;BME280;3226;42.162;24.756;2022-09-09T11:19:39;99712.50;;;26.45;44.66
6387;BME280;3226;42.162;24.756;2022-09-09T11:22:15;99703.47;;;26.39;44.77
6387;BME280;3226;42.162;24.756;2022-09-09T11:24:49;99718.34;;;26.66;45.22
6387;BME280;3226;42.162;24.756;2022-09-09T11:27:24;99705.97;;;26.65;45.08
6387;BME280;3226;42.162;24.756;2022-09-09T11:30:15;99701.28;;;26.48;44.40
6387;BME280;3226;42.162;24.756;2022-09-09T11:33:49;99688.34;;;26.69;45.14
6387;BME280;3226;42.162;24.756;2022-09-09T11:36:43;99695.50;;;26.87;45.13
6387;BME280;3226;42.162;24.756;2022-09-09T11:39:45;99694.31;;;26.71;45.57
6387;BME280;3226;42.162;24.756;2022-09-09T11:42:21;99700.66;;;26.89;44.37
6387;BME280;3226;42.162;24.756;2022-09-09T11:44:50;99693.38;;;27.01;44.63
6387;BME280;3226;42.162;24.756;2022-09-09T11:47:22;99682.41;;;27.03;43.04
6387;BME280;3226;42.162;24.756;2022-09-09T11:49:53;99703.34;;;27.01;44.50
6387;BME280;3226;42.162;24.756;2022-09-09T11:52:23;99654.16;;;26.76;42.89
6387;BME280;3226;42.162;24.756;2022-09-09T11:54:55;99695.66;;;26.38;44.59
6387;BME280;3226;42.162;24.756;2022-09-09T11:57:32;99681.44;;;26.49;44.21
6387;BME280;3226;42.162;24.756;2022-09-09T12:00:04;99680.78;;;26.90;43.66
6387;BME280;3226;42.162;24.756;2022-09-09T12:02:33;99661.25;;;26.70;43.71
6387;BME280;3226;42.162;24.756;2022-09-09T12:05:06;99675.59;;;26.52;44.71
6387;BME280;3226;42.162;24.756;2022-09-09T12:07:39;99662.88;;;26.60;44.78
6387;BME280;3226;42.162;24.756;2022-09-09T12:10:22;99628.81;;;26.48;44.28
6387;BME280;3226;42.162;24.756;2022-09-09T12:12:54;99655.41;;;26.74;43.50
6387;BME280;3226;42.162;24.756;2022-09-09T12:15:26;99653.31;;;26.64;44.45
6387;BME280;3226;42.162;24.756;2022-09-09T12:17:57;99651.47;;;26.64;44.36
6387;BME280;3226;42.162;24.756;2022-09-09T12:20:34;99657.28;;;26.97;44.44
6387;BME280;3226;42.162;24.756;2022-09-09T12:23:18;99653.91;;;27.13;43.35
6387;BME280;3226;42.162;24.756;2022-09-09T12:26:04;99652.28;;;27.12;44.11
6387;BME280;3226;42.162;24.756;2022-09-09T12:31:34;99644.44;;;27.11;43.13
6387;BME280;3226;42.162;24.756;2022-09-09T12:34:15;99627.97;;;27.07;43.27
6387;BME280;3226;42.162;24.756;2022-09-09T12:36:54;99635.00;;;26.96;44.34
6387;BME280;3226;42.162;24.756;2022-09-09T12:39:29;99613.03;;;26.88;43.41
6387;BME280;3226;42.162;24.756;2022-09-09T12:41:58;99632.41;;;27.13;44.20
6387;BME280;3226;42.162;24.756;2022-09-09T12:44:28;99634.03;;;27.15;43.80
6387;BME280;3226;42.162;24.756;2022-09-09T12:47:00;99630.88;;;27.06;44.34
6387;BME280;3226;42.162;24.756;2022-09-09T12:49:31;99622.72;;;27.01;44.56
6387;BME280;3226;42.162;24.756;2022-09-09T12:52:03;99618.16;;;27.01;44.31
6387;BME280;3226;42.162;24.756;2022-09-09T12:54:34;99603.66;;;27.02;44.74
6387;BME280;3226;42.162;24.756;2022-09-09T12:57:04;99622.72;;;27.01;45.48
6387;BME280;3226;42.162;24.756;2022-09-09T12:59:38;99619.78;;;27.02;45.14
6387;BME280;3226;42.162;24.756;2022-09-09T13:02:18;99593.28;;;26.94;44.42
6387;BME280;3226;42.162;24.756;2022-09-09T13:04:47;99607.38;;;27.13;44.76
6387;BME280;3226;42.162;24.756;2022-09-09T13:07:18;99597.31;;;27.20;44.23
6387;BME280;3226;42.162;24.756;2022-09-09T13:09:47;99603.13;;;27.29;43.90
6387;BME280;3226;42.162;24.756;2022-09-09T13:12:18;99608.59;;;27.34;43.32
6387;BME280;3226;42.162;24.756;2022-09-09T13:14:50;99609.19;;;27.36;44.01
6387;BME280;3226;42.162;24.756;2022-09-09T13:17:22;99595.09;;;27.17;44.11
6387;BME280;3226;42.162;24.756;2022-09-09T13:19:52;99585.28;;;27.23;44.13
6387;BME280;3226;42.162;24.756;2022-09-09T13:22:34;99583.47;;;27.40;44.31
6387;BME280;3226;42.162;24.756;2022-09-09T13:25:13;99587.31;;;27.45;44.66
6387;BME280;3226;42.162;24.756;2022-09-09T13:27:53;99591.31;;;27.30;44.23
6387;BME280;3226;42.162;24.756;2022-09-09T13:30:26;99599.16;;;27.32;44.00
6387;BME280;3226;42.162;24.756;2022-09-09T13:33:05;99580.97;;;27.22;44.51
6387;BME280;3226;42.162;24.756;2022-09-09T13:35:34;99563.88;;;27.28;44.09
6387;BME280;3226;42.162;24.756;2022-09-09T13:38:07;99580.50;;;27.54;43.95
6387;BME280;3226;42.162;24.756;2022-09-09T13:40:37;99577.63;;;27.44;43.53
6387;BME280;3226;42.162;24.756;2022-09-09T13:43:14;99533.25;;;27.29;44.05
6387;BME280;3226;42.162;24.756;2022-09-09T13:45:55;99568.38;;;27.68;44.92
6387;BME280;3226;42.162;24.756;2022-09-09T13:48:25;99561.06;;;27.64;44.06